sensor_id;sensor_type;location;lat;lon;timestamp;pressure;altitude;pressure_sealevel;temperature;humidity
48553;BME280;34335;51.566;6.994;2023-01-31T00:00:03;101860.19;;;2.00;100.00
48553;BME280;34335;51.566;6.994;2023-01-31T00:02:30;101855.75;;;1.98;100.00
48553;BME280;34335;51.566;6.994;2023-01-31T00:04:55;101853.84;;;1.94;100.00
48553;BME280;34335;51.566;6.994;2023-01-31T00:07:20;101857.75;;;1.87;100.00
48553;BME280;34335;51.566;6.994;2023-01-31T00:09:45;101847.25;;;1.82;100.00
48553;BME280;34335;51.566;6.994;2023-01-31T00:12:11;101845.41;;;1.80;100.00
48553;BME280;34335;51.566;6.994;2023-01-31T00:14:36;101856.09;;;1.88;100.00
48553;BME280;34335;51.566;6.994;2023-01-31T00:17:01;101862.81;;;1.85;100.00
48553;BME280;34335;51.566;6.994;2023-01-31T00:19:27;101852.94;;;1.93;100.00
48553;BME280;34335;51.566;6.994;2023-01-31T00:21:52;101850.06;;;2.03;100.00
48553;BME280;34335;51.566;6.994;2023-01-31T00:24:17;101841.88;;;1.94;100.00
48553;BME280;34335;51.566;6.994;2023-01-31T00:26:43;101854.47;;;1.90;100.00
48553;BME280;34335;51.566;6.994;2023-01-31T00:29:08;101856.34;;;1.92;100.00
48553;BME280;34335;51.566;6.994;2023-01-31T00:31:34;101850.63;;;1.98;100.00
48553;BME280;34335;51.566;6.994;2023-01-31T00:34:00;101849.19;;;2.03;100.00
48553;BME280;34335;51.566;6.994;2023-01-31T00:36:28;101851.50;;;1.98;100.00
48553;BME280;34335;51.566;6.994;2023-01-31T00:38:56;101848.06;;;1.98;100.00
48553;BME280;34335;51.566;6.994;2023-01-31T00:41:24;101851.09;;;1.91;100.00
48553;BME280;34335;51.566;6.994;2023-01-31T00:43:49;101847.44;;;1.85;100.00
48553;BME280;34335;51.566;6.994;2023-01-31T00:46:15;101836.28;;;2.01;100.00
48553;BME280;34335;51.566;6.994;2023-01-31T00:48:41;101837.09;;;2.00;100.00
48553;BME280;34335;51.566;6.994;2023-01-31T00:51:06;101839.66;;;2.00;100.00
48553;BME280;34335;51.566;6.994;2023-01-31T00:53:31;101843.16;;;2.02;100.00
48553;BME280;34335;51.566;6.994;2023-01-31T00:56:06;101849.19;;;2.03;100.00
48553;BME280;34335;51.566;6.994;2023-01-31T00:58:32;101852.88;;;2.08;100.00
48553;BME280;34335;51.566;6.994;2023-01-31T01:01:09;101848.53;;;2.07;100.00
48553;BME280;34335;51.566;6.994;2023-01-31T01:03:35;101840.84;;;2.07;100.00
48553;BME280;34335;51.566;6.994;2023-01-31T01:06:01;101845.41;;;2.13;100.00
48553;BME280;34335;51.566;6.994;2023-01-31T01:08:27;101852.72;;;2.05;100.00
48553;BME280;34335;51.566;6.994;2023-01-31T01:10:53;101847.59;;;2.05;100.00
48553;BME280;34335;51.566;6.994;2023-01-31T01:13:18;101852.50;;;2.00;100.00
48553;BME280;34335;51.566;6.994;2023-01-31T01:15:44;101853.91;;;1.95;100.00
48553;BME280;34335;51.566;6.994;2023-01-31T01:18:09;101854.63;;;1.93;100.00
48553;BME280;34335;51.566;6.994;2023-01-31T01:20:35;101853.19;;;1.98;100.00
48553;BME280;34335;51.566;6.994;2023-01-31T01:23:00;101838.44;;;1.94;100.00
48553;BME280;34335;51.566;6.994;2023-01-31T01:25:26;101843.75;;;1.97;100.00
48553;BME280;34335;51.566;6.994;2023-01-31T01:27:51;101842.13;;;1.99;100.00
48553;BME280;34335;51.566;6.994;2023-01-31T01:30:17;101837.47;;;2.08;100.00
48553;BME280;34335;51.566;6.994;2023-01-31T01:32:42;101833.06;;;2.06;100.00
48553;BME280;34335;51.566;6.994;2023-01-31T01:35:08;101847.25;;;1.99;100.00
48553;BME280;34335;51.566;6.994;2023-01-31T01:37:34;101839.88;;;1.89;100.00
48553;BME280;34335;51.566;6.994;2023-01-31T01:39:59;101837.53;;;1.77;100.00
48553;BME280;34335;51.566;6.994;2023-01-31T01:42:25;101833.47;;;1.80;100.00
48553;BME280;34335;51.566;6.994;2023-01-31T01:44:52;101823.84;;;1.76;100.00
48553;BME280;34335;51.566;6.994;2023-01-31T01:49:55;101822.94;;;1.76;100.00
48553;BME280;34335;51.566;6.994;2023-01-31T01:52:22;101828.97;;;1.76;100.00
48553;BME280;34335;51.566;6.994;2023-01-31T01:54:54;101828.09;;;1.76;100.00
48553;BME280;34335;51.566;6.994;2023-01-31T01:57:25;101825.28;;;1.71;100.00
48553;BME280;34335;51.566;6.994;2023-01-31T02:02:35;101830.16;;;1.66;100.00
48553;BME280;34335;51.566;6.994;2023-01-31T02:05:01;101833.88;;;1.71;100.00
48553;BME280;34335;51.566;6.994;2023-01-31T02:07:27;101834.81;;;1.74;100.00
48553;BME280;34335;51.566;6.994;2023-01-31T02:10:07;101844.38;;;1.76;100.00
48553;BME280;34335;51.566;6.994;2023-01-31T02:12:36;101838.13;;;1.88;100.00
48553;BME280;34335;51.566;6.994;2023-01-31T02:15:02;101844.50;;;1.79;100.00
48553;BME280;34335;51.566;6.994;2023-01-31T02:17:28;101844.50;;;1.79;100.00
48553;BME280;34335;51.566;6.994;2023-01-31T02:28:08;101867.84;;;1.84;100.00
48553;BME280;34335;51.566;6.994;2023-01-31T02:33:33;101869.63;;;1.85;100.00
48553;BME280;34335;51.566;6.994;2023-01-31T02:49:55;101852.38;;;1.82;100.00
48553;BME280;34335;51.566;6.994;2023-01-31T02:54:53;101848.94;;;1.82;100.00
48553;BME280;34335;51.566;6.994;2023-01-31T02:57:39;101852.38;;;1.82;100.00
48553;BME280;34335;51.566;6.994;2023-01-31T03:00:07;101853.19;;;1.81;100.00
48553;BME280;34335;51.566;6.994;2023-01-31T03:02:33;101855.13;;;1.85;100.00
48553;BME280;34335;51.566;6.994;2023-01-31T03:04:59;101846.63;;;1.86;100.00
48553;BME280;34335;51.566;6.994;2023-01-31T03:07:29;101842.53;;;1.90;100.00
48553;BME280;34335;51.566;6.994;2023-01-31T03:12:41;101841.81;;;1.93;100.00
48553;BME280;34335;51.566;6.994;2023-01-31T03:15:13;101837.97;;;1.84;100.00
48553;BME280;34335;51.566;6.994;2023-01-31T03:18:12;101830.09;;;1.81;100.00
48553;BME280;34335;51.566;6.994;2023-01-31T03:20:41;101832.09;;;1.87;100.00
48553;BME280;34335;51.566;6.994;2023-01-31T03:23:17;101828.00;;;1.91;100.00
48553;BME280;34335;51.566;6.994;2023-01-31T03:25:44;101818.41;;;1.86;100.00
48553;BME280;34335;51.566;6.994;2023-01-31T03:28:14;101822.66;;;1.86;100.00
48553;BME280;34335;51.566;6.994;2023-01-31T03:30:47;101819.44;;;1.90;100.00
48553;BME280;34335;51.566;6.994;2023-01-31T03:33:20;101814.22;;;1.89;100.00
48553;BME280;34335;51.566;6.994;2023-01-31T03:35:50;101804.13;;;1.92;100.00
48553;BME280;34335;51.566;6.994;2023-01-31T03:38:20;101804.94;;;1.91;100.00
48553;BME280;34335;51.566;6.994;2023-01-31T03:40:54;101798.44;;;1.97;100.00
48553;BME280;34335;51.566;6.994;2023-01-31T03:43:31;101788.72;;;1.92;100.00
48553;BME280;34335;51.566;6.994;2023-01-31T03:46:06;101779.94;;;1.86;100.00
48553;BME280;34335;51.566;6.994;2023-01-31T03:48:38;101778.47;;;1.92;100.00
48553;BME280;34335;51.566;6.994;2023-01-31T03:51:09;101776.69;;;1.91;100.00
48553;BME280;34335;51.566;6.994;2023-01-31T03:53:40;101765.97;;;1.81;100.00
48553;BME280;34335;51.566;6.994;2023-01-31T03:56:17;101763.41;;;1.81;100.00
48553;BME280;34335;51.566;6.994;2023-01-31T03:58:52;101753.94;;;1.80;100.00
48553;BME280;34335;51.566;6.994;2023-01-31T04:01:22;101755.53;;;1.78;100.00
48553;BME280;34335;51.566;6.994;2023-01-31T04:03:52;101746.91;;;1.76;100.00
48553;BME280;34335;51.566;6.994;2023-01-31T04:06:20;101764.13;;;1.79;100.00
48553;BME280;34335;51.566;6.994;2023-01-31T04:08:45;101760.34;;;1.72;100.00
48553;BME280;34335;51.566;6.994;2023-01-31T04:11:13;101747.03;;;1.79;100.00
48553;BME280;34335;51.566;6.994;2023-01-31T04:13:38;101756.13;;;1.73;100.00
48553;BME280;34335;51.566;6.994;2023-01-31T04:16:04;101755.41;;;1.75;100.00
48553;BME280;34335;51.566;6.994;2023-01-31T04:18:29;101753.94;;;1.80;100.00
48553;BME280;34335;51.566;6.994;2023-01-31T04:20:55;101756.84;;;1.86;100.00
48553;BME280;34335;51.566;6.994;2023-01-31T04:23:20;101755.31;;;1.90;100.00
48553;BME280;34335;51.566;6.994;2023-01-31T04:25:46;101761.00;;;1.84;100.00
48553;BME280;34335;51.566;6.994;2023-01-31T04:28:11;101766.19;;;1.86;100.00
48553;BME280;34335;51.566;6.994;2023-01-31T04:30:37;101767.16;;;1.88;100.00
48553;BME280;34335;51.566;6.994;2023-01-31T04:33:02;101768.28;;;1.93;100.00
48553;BME280;34335;51.566;6.994;2023-01-31T04:35:27;101769.41;;;1.98;100.00
48553;BME280;34335;51.566;6.994;2023-01-31T04:37:53;101768.38;;;1.95;100.00
48553;BME280;34335;51.566;6.994;2023-01-31T04:40:18;101764.03;;;1.94;100.00
48553;BME280;34335;51.566;6.994;2023-01-31T04:42:43;101754.88;;;1.99;100.00
48553;BME280;34335;51.566;6.994;2023-01-31T04:45:09;101766.13;;;2.01;100.00
48553;BME280;34335;51.566;6.994;2023-01-31T04:47:35;101766.59;;;1.94;100.00
48553;BME280;34335;51.566;6.994;2023-01-31T04:50:00;101753.63;;;1.91;100.00
48553;BME280;34335;51.566;6.994;2023-01-31T04:52:25;101754.25;;;2.03;100.00
48553;BME280;34335;51.566;6.994;2023-01-31T04:54:51;101753.13;;;1.98;100.00
48553;BME280;34335;51.566;6.994;2023-01-31T04:57:16;101752.41;;;2.00;100.00
48553;BME280;34335;51.566;6.994;2023-01-31T04:59:41;101742.63;;;2.10;100.00
48553;BME280;34335;51.566;6.994;2023-01-31T05:02:07;101736.81;;;2.14;100.00
48553;BME280;34335;51.566;6.994;2023-01-31T05:04:32;101749.59;;;2.12;100.00
48553;BME280;34335;51.566;6.994;2023-01-31T05:06:58;101737.28;;;2.23;100.00
48553;BME280;34335;51.566;6.994;2023-01-31T05:09:23;101727.91;;;2.24;100.00
48553;BME280;34335;51.566;6.994;2023-01-31T05:11:49;101730.94;;;2.33;100.00
48553;BME280;34335;51.566;6.994;2023-01-31T05:14:15;101726.88;;;2.38;100.00
48553;BME280;34335;51.566;6.994;2023-01-31T05:16:41;101721.75;;;2.38;100.00
48553;BME280;34335;51.566;6.994;2023-01-31T05:19:09;101720.94;;;2.39;100.00
48553;BME280;34335;51.566;6.994;2023-01-31T05:21:35;101722.78;;;2.42;100.00
48553;BME280;34335;51.566;6.994;2023-01-31T05:24:19;101721.00;;;2.41;100.00
48553;BME280;34335;51.566;6.994;2023-01-31T05:26:44;101716.34;;;2.50;100.00
48553;BME280;34335;51.566;6.994;2023-01-31T05:29:09;101717.06;;;2.47;100.00
48553;BME280;34335;51.566;6.994;2023-01-31T05:31:35;101715.81;;;2.39;100.00
48553;BME280;34335;51.566;6.994;2023-01-31T05:34:00;101709.81;;;2.39;100.00
48553;BME280;34335;51.566;6.994;2023-01-31T05:36:25;101716.03;;;2.44;100.00
48553;BME280;34335;51.566;6.994;2023-01-31T05:38:50;101705.81;;;2.45;100.00
48553;BME280;34335;51.566;6.994;2023-01-31T05:41:16;101703.13;;;2.42;100.00
48553;BME280;34335;51.566;6.994;2023-01-31T05:43:41;101704.97;;;2.45;100.00
48553;BME280;34335;51.566;6.994;2023-01-31T05:46:06;101710.25;;;2.48;100.00
48553;BME280;34335;51.566;6.994;2023-01-31T05:48:31;101701.75;;;2.49;100.00
48553;BME280;34335;51.566;6.994;2023-01-31T05:50:57;101700.84;;;2.48;100.00
48553;BME280;34335;51.566;6.994;2023-01-31T05:53:22;101692.34;;;2.49;100.00
48553;BME280;34335;51.566;6.994;2023-01-31T05:55:48;101677.84;;;2.50;100.00
48553;BME280;34335;51.566;6.994;2023-01-31T05:58:14;101672.31;;;2.42;100.00
48553;BME280;34335;51.566;6.994;2023-01-31T06:00:39;101662.91;;;2.43;100.00
48553;BME280;34335;51.566;6.994;2023-01-31T06:03:05;101665.25;;;2.38;100.00
48553;BME280;34335;51.566;6.994;2023-01-31T06:05:30;101653.31;;;2.39;100.00
48553;BME280;34335;51.566;6.994;2023-01-31T06:07:55;101658.59;;;2.42;100.00
48553;BME280;34335;51.566;6.994;2023-01-31T06:10:21;101668.00;;;2.41;100.00
48553;BME280;34335;51.566;6.994;2023-01-31T06:12:47;101668.00;;;2.41;100.00
48553;BME280;34335;51.566;6.994;2023-01-31T06:15:12;101660.06;;;2.37;100.00
48553;BME280;34335;51.566;6.994;2023-01-31T06:17:37;101662.84;;;2.41;100.00
48553;BME280;34335;51.566;6.994;2023-01-31T06:20:04;101665.34;;;2.40;100.00
48553;BME280;34335;51.566;6.994;2023-01-31T06:22:29;101671.34;;;2.40;100.00
48553;BME280;34335;51.566;6.994;2023-01-31T06:24:55;101659.31;;;2.39;100.00
48553;BME280;34335;51.566;6.994;2023-01-31T06:27:20;101670.63;;;2.43;100.00
48553;BME280;34335;51.566;6.994;2023-01-31T06:29:45;101672.44;;;2.45;100.00
48553;BME280;34335;51.566;6.994;2023-01-31T06:32:10;101670.84;;;2.47;100.00
48553;BME280;34335;51.566;6.994;2023-01-31T06:34:36;101668.94;;;2.43;100.00
48553;BME280;34335;51.566;6.994;2023-01-31T06:37:01;101668.78;;;2.40;100.00
48553;BME280;34335;51.566;6.994;2023-01-31T06:39:26;101680.47;;;2.52;100.00
48553;BME280;34335;51.566;6.994;2023-01-31T06:41:52;101688.09;;;2.50;100.00
48553;BME280;34335;51.566;6.994;2023-01-31T06:44:17;101675.31;;;2.52;100.00
48553;BME280;34335;51.566;6.994;2023-01-31T06:46:42;101671.94;;;2.53;100.00
48553;BME280;34335;51.566;6.994;2023-01-31T06:49:07;101676.63;;;2.61;100.00
48553;BME280;34335;51.566;6.994;2023-01-31T06:51:33;101678.19;;;2.58;100.00
48553;BME280;34335;51.566;6.994;2023-01-31T06:53:58;101681.06;;;2.64;100.00
48553;BME280;34335;51.566;6.994;2023-01-31T06:56:23;101672.50;;;2.65;100.00
48553;BME280;34335;51.566;6.994;2023-01-31T06:58:49;101680.16;;;2.63;100.00
48553;BME280;34335;51.566;6.994;2023-01-31T07:01:14;101685.34;;;2.65;100.00
48553;BME280;34335;51.566;6.994;2023-01-31T07:03:40;101683.00;;;2.70;100.00
48553;BME280;34335;51.566;6.994;2023-01-31T07:06:07;101691.75;;;2.73;100.00
48553;BME280;34335;51.566;6.994;2023-01-31T07:08:33;101687.03;;;2.83;100.00
48553;BME280;34335;51.566;6.994;2023-01-31T07:10:59;101690.53;;;2.85;100.00
48553;BME280;34335;51.566;6.994;2023-01-31T07:13:27;101693.78;;;2.80;100.00
48553;BME280;34335;51.566;6.994;2023-01-31T07:15:53;101680.41;;;2.88;100.00
48553;BME280;34335;51.566;6.994;2023-01-31T07:18:18;101686.72;;;2.94;100.00
48553;BME280;34335;51.566;6.994;2023-01-31T07:20:44;101673.88;;;2.94;100.00
48553;BME280;34335;51.566;6.994;2023-01-31T07:23:09;101674.53;;;2.90;100.00
48553;BME280;34335;51.566;6.994;2023-01-31T07:25:34;101676.38;;;2.93;100.00
48553;BME280;34335;51.566;6.994;2023-01-31T07:28:01;101671.84;;;2.87;100.00
48553;BME280;34335;51.566;6.994;2023-01-31T07:30:27;101673.94;;;2.96;100.00
48553;BME280;34335;51.566;6.994;2023-01-31T07:32:52;101676.44;;;2.94;100.00
48553;BME280;34335;51.566;6.994;2023-01-31T07:35:18;101680.19;;;3.01;100.00
48553;BME280;34335;51.566;6.994;2023-01-31T07:37:44;101679.44;;;3.04;100.00
48553;BME280;34335;51.566;6.994;2023-01-31T07:40:11;101669.09;;;3.02;100.00
48553;BME280;34335;51.566;6.994;2023-01-31T07:42:37;101669.09;;;3.02;100.00
48553;BME280;34335;51.566;6.994;2023-01-31T07:45:03;101668.25;;;3.03;100.00
48553;BME280;34335;51.566;6.994;2023-01-31T07:47:29;101658.81;;;3.02;100.00
48553;BME280;34335;51.566;6.994;2023-01-31T07:49:54;101662.47;;;3.07;100.00
48553;BME280;34335;51.566;6.994;2023-01-31T07:52:19;101661.00;;;3.13;100.00
48553;BME280;34335;51.566;6.994;2023-01-31T07:54:44;101648.88;;;3.10;100.00
48553;BME280;34335;51.566;6.994;2023-01-31T07:57:10;101646.88;;;3.04;100.00
48553;BME280;34335;51.566;6.994;2023-01-31T07:59:35;101640.34;;;3.11;100.00
48553;BME280;34335;51.566;6.994;2023-01-31T08:02:00;101640.34;;;3.11;100.00
48553;BME280;34335;51.566;6.994;2023-01-31T08:04:44;101639.75;;;3.17;100.00
48553;BME280;34335;51.566;6.994;2023-01-31T08:07:09;101641.50;;;3.18;100.00
48553;BME280;34335;51.566;6.994;2023-01-31T08:09:35;101635.56;;;3.19;100.00
48553;BME280;34335;51.566;6.994;2023-01-31T08:12:00;101638.88;;;3.16;100.00
48553;BME280;34335;51.566;6.994;2023-01-31T08:14:26;101646.59;;;3.16;100.00
48553;BME280;34335;51.566;6.994;2023-01-31T08:16:53;101636.31;;;3.16;100.00
48553;BME280;34335;51.566;6.994;2023-01-31T08:19:19;101635.41;;;3.16;100.00
48553;BME280;34335;51.566;6.994;2023-01-31T08:21:44;101643.91;;;3.15;100.00
48553;BME280;34335;51.566;6.994;2023-01-31T08:24:09;101638.78;;;3.15;100.00
48553;BME280;34335;51.566;6.994;2023-01-31T08:26:35;101643.22;;;3.17;100.00
48553;BME280;34335;51.566;6.994;2023-01-31T08:29:00;101637.56;;;3.06;100.00
48553;BME280;34335;51.566;6.994;2023-01-31T08:31:26;101635.53;;;2.99;100.00
48553;BME280;34335;51.566;6.994;2023-01-31T08:33:52;101631.97;;;2.95;100.00
48553;BME280;34335;51.566;6.994;2023-01-31T08:36:23;101617.28;;;2.93;100.00
48553;BME280;34335;51.566;6.994;2023-01-31T08:38:49;101612.00;;;2.90;100.00
48553;BME280;34335;51.566;6.994;2023-01-31T08:41:15;101610.09;;;2.86;100.00
48553;BME280;34335;51.566;6.994;2023-01-31T08:43:42;101599.81;;;2.86;100.00
48553;BME280;34335;51.566;6.994;2023-01-31T08:46:07;101586.97;;;2.86;100.00
48553;BME280;34335;51.566;6.994;2023-01-31T08:48:34;101588.06;;;2.91;100.00
48553;BME280;34335;51.566;6.994;2023-01-31T08:51:01;101587.31;;;2.93;100.00
48553;BME280;34335;51.566;6.994;2023-01-31T08:53:27;101578.03;;;2.97;100.00
48553;BME280;34335;51.566;6.994;2023-01-31T08:55:57;101569.38;;;2.95;100.00
48553;BME280;34335;51.566;6.994;2023-01-31T08:58:22;101579.81;;;2.98;100.00
48553;BME280;34335;51.566;6.994;2023-01-31T09:00:47;101571.16;;;2.96;100.00
48553;BME280;34335;51.566;6.994;2023-01-31T09:03:14;101559.41;;;3.01;100.00
48553;BME280;34335;51.566;6.994;2023-01-31T09:05:41;101561.22;;;3.04;100.00
48553;BME280;34335;51.566;6.994;2023-01-31T09:08:06;101559.66;;;3.07;100.00
48553;BME280;34335;51.566;6.994;2023-01-31T09:10:31;101564.84;;;3.09;100.00
48553;BME280;34335;51.566;6.994;2023-01-31T09:12:58;101565.81;;;3.11;100.00
48553;BME280;34335;51.566;6.994;2023-01-31T09:15:24;101564.38;;;3.18;100.00
48553;BME280;34335;51.566;6.994;2023-01-31T09:17:51;101563.53;;;3.17;100.00
48553;BME280;34335;51.566;6.994;2023-01-31T09:20:16;101563.72;;;3.22;100.00
48553;BME280;34335;51.566;6.994;2023-01-31T09:22:41;101566.53;;;3.28;100.00
48553;BME280;34335;51.566;6.994;2023-01-31T09:25:07;101566.69;;;3.31;100.00
48553;BME280;34335;51.566;6.994;2023-01-31T09:27:34;101566.69;;;3.31;100.00
48553;BME280;34335;51.566;6.994;2023-01-31T09:29:59;101565.97;;;3.35;100.00
48553;BME280;34335;51.566;6.994;2023-01-31T09:32:25;101559.34;;;3.40;100.00
48553;BME280;34335;51.566;6.994;2023-01-31T09:34:50;101554.47;;;3.47;100.00
48553;BME280;34335;51.566;6.994;2023-01-31T09:37:15;101549.44;;;3.50;100.00
48553;BME280;34335;51.566;6.994;2023-01-31T09:39:41;101544.31;;;3.50;100.00
48553;BME280;34335;51.566;6.994;2023-01-31T09:45:03;101551.44;;;3.57;100.00
48553;BME280;34335;51.566;6.994;2023-01-31T09:47:38;101544.53;;;3.56;100.00
48553;BME280;34335;51.566;6.994;2023-01-31T09:50:20;101543.16;;;3.64;100.00
48553;BME280;34335;51.566;6.994;2023-01-31T09:52:47;101533.00;;;3.67;100.00
48553;BME280;34335;51.566;6.994;2023-01-31T09:55:17;101533.00;;;3.67;100.00
48553;BME280;34335;51.566;6.994;2023-01-31T09:57:55;101542.41;;;3.67;100.00
48553;BME280;34335;51.566;6.994;2023-01-31T10:00:31;101540.00;;;3.71;100.00
48553;BME280;34335;51.566;6.994;2023-01-31T10:03:21;101533.78;;;3.65;100.00
48553;BME280;34335;51.566;6.994;2023-01-31T10:08:46;101524.72;;;3.74;100.00
48553;BME280;34335;51.566;6.994;2023-01-31T10:11:28;101522.31;;;3.79;100.00
48553;BME280;34335;51.566;6.994;2023-01-31T10:14:17;101521.31;;;3.76;100.00
48553;BME280;34335;51.566;6.994;2023-01-31T10:19:54;101509.69;;;3.85;100.00
48553;BME280;34335;51.566;6.994;2023-01-31T10:22:35;101510.47;;;3.83;100.00
48553;BME280;34335;51.566;6.994;2023-01-31T10:25:24;101505.44;;;3.86;100.00
48553;BME280;34335;51.566;6.994;2023-01-31T10:27:55;101490.03;;;3.87;100.00
48553;BME280;34335;51.566;6.994;2023-01-31T10:30:39;101502.09;;;3.88;100.00
48553;BME280;34335;51.566;6.994;2023-01-31T10:33:21;101503.03;;;3.90;100.00
48553;BME280;34335;51.566;6.994;2023-01-31T10:35:51;101510.72;;;3.89;100.00
48553;BME280;34335;51.566;6.994;2023-01-31T10:38:29;101505.63;;;3.90;100.00
48553;BME280;34335;51.566;6.994;2023-01-31T10:41:00;101500.44;;;3.89;100.00
48553;BME280;34335;51.566;6.994;2023-01-31T10:43:43;101504.00;;;3.93;100.00
48553;BME280;34335;51.566;6.994;2023-01-31T10:46:11;101496.31;;;3.94;100.00
48553;BME280;34335;51.566;6.994;2023-01-31T10:48:37;101485.16;;;3.94;100.00
48553;BME280;34335;51.566;6.994;2023-01-31T10:56:27;101461.16;;;3.95;100.00
48553;BME280;34335;51.566;6.994;2023-01-31T10:58:55;101469.81;;;3.97;100.00
48553;BME280;34335;51.566;6.994;2023-01-31T11:01:22;101474.31;;;4.02;100.00
48553;BME280;34335;51.566;6.994;2023-01-31T11:03:50;101460.69;;;4.05;100.00
48553;BME280;34335;51.566;6.994;2023-01-31T11:06:17;101466.84;;;4.09;100.00
48553;BME280;34335;51.566;6.994;2023-01-31T11:08:46;101463.56;;;4.13;100.00
48553;BME280;34335;51.566;6.994;2023-01-31T11:11:15;101463.56;;;4.13;100.00
48553;BME280;34335;51.566;6.994;2023-01-31T11:14:02;101468.00;;;4.17;100.00
48553;BME280;34335;51.566;6.994;2023-01-31T11:16:31;101459.56;;;4.21;100.00
48553;BME280;34335;51.566;6.994;2023-01-31T11:18:58;101456.31;;;4.25;100.00
48553;BME280;34335;51.566;6.994;2023-01-31T11:21:27;101461.50;;;4.27;100.00
48553;BME280;34335;51.566;6.994;2023-01-31T11:24:04;101468.53;;;4.31;100.00
48553;BME280;34335;51.566;6.994;2023-01-31T11:26:35;101449.72;;;4.33;100.00
48553;BME280;34335;51.566;6.994;2023-01-31T11:29:09;101461.06;;;4.39;100.00
48553;BME280;34335;51.566;6.994;2023-01-31T11:31:41;101453.34;;;4.39;100.00
48553;BME280;34335;51.566;6.994;2023-01-31T11:34:30;101443.94;;;4.39;100.00
48553;BME280;34335;51.566;6.994;2023-01-31T11:37:12;101443.09;;;4.40;100.00
48553;BME280;34335;51.566;6.994;2023-01-31T11:39:39;101436.38;;;4.44;100.00
48553;BME280;34335;51.566;6.994;2023-01-31T11:42:09;101430.41;;;4.45;100.00
48553;BME280;34335;51.566;6.994;2023-01-31T11:44:36;101419.34;;;4.49;100.00
48553;BME280;34335;51.566;6.994;2023-01-31T11:47:03;101416.91;;;4.52;100.00
48553;BME280;34335;51.566;6.994;2023-01-31T11:49:33;101426.34;;;4.51;100.00
48553;BME280;34335;51.566;6.994;2023-01-31T11:52:16;101427.31;;;4.55;100.00
48553;BME280;34335;51.566;6.994;2023-01-31T11:54:46;101435.06;;;4.55;100.00
48553;BME280;34335;51.566;6.994;2023-01-31T11:57:14;101426.50;;;4.56;100.00
48553;BME280;34335;51.566;6.994;2023-01-31T11:59:41;101425.72;;;4.59;100.00
48553;BME280;34335;51.566;6.994;2023-01-31T12:02:24;101420.63;;;4.60;100.00
48553;BME280;34335;51.566;6.994;2023-01-31T12:04:50;101425.81;;;4.62;100.00
48553;BME280;34335;51.566;6.994;2023-01-31T12:07:24;101411.13;;;4.59;100.00
48553;BME280;34335;51.566;6.994;2023-01-31T12:09:50;101419.81;;;4.61;100.00
48553;BME280;34335;51.566;6.994;2023-01-31T12:12:26;101420.56;;;4.59;100.00
48553;BME280;34335;51.566;6.994;2023-01-31T12:14:57;101414.59;;;4.60;100.00
48553;BME280;34335;51.566;6.994;2023-01-31T12:17:23;101423.31;;;4.63;100.00
48553;BME280;34335;51.566;6.994;2023-01-31T12:25:54;101383.88;;;4.66;100.00
48553;BME280;34335;51.566;6.994;2023-01-31T12:28:33;101385.69;;;4.68;100.00
48553;BME280;34335;51.566;6.994;2023-01-31T12:39:26;101368.53;;;4.69;100.00
48553;BME280;34335;51.566;6.994;2023-01-31T12:42:17;101367.06;;;4.76;100.00
48553;BME280;34335;51.566;6.994;2023-01-31T12:55:58;101374.34;;;4.89;100.00
48553;BME280;34335;51.566;6.994;2023-01-31T12:59:02;101367.59;;;4.93;100.00
48553;BME280;34335;51.566;6.994;2023-01-31T13:01:43;101370.28;;;4.96;100.00
48553;BME280;34335;51.566;6.994;2023-01-31T13:04:25;101363.47;;;4.98;100.00
48553;BME280;34335;51.566;6.994;2023-01-31T13:06:59;101368.81;;;5.04;100.00
48553;BME280;34335;51.566;6.994;2023-01-31T13:09:30;101373.19;;;5.07;100.00
48553;BME280;34335;51.566;6.994;2023-01-31T13:12:11;101370.91;;;5.16;100.00
48553;BME280;34335;51.566;6.994;2023-01-31T13:14:43;101369.78;;;5.08;100.00
48553;BME280;34335;51.566;6.994;2023-01-31T13:17:17;101371.25;;;4.99;100.00
48553;BME280;34335;51.566;6.994;2023-01-31T13:19:56;101366.72;;;4.92;100.00
48553;BME280;34335;51.566;6.994;2023-01-31T13:22:27;101371.88;;;4.92;100.00
48553;BME280;34335;51.566;6.994;2023-01-31T13:27:53;101375.97;;;4.86;100.00
48553;BME280;34335;51.566;6.994;2023-01-31T13:30:37;101371.63;;;4.84;100.00
48553;BME280;34335;51.566;6.994;2023-01-31T13:33:17;101370.69;;;4.82;100.00
48553;BME280;34335;51.566;6.994;2023-01-31T13:35:43;101363.78;;;4.81;100.00
48553;BME280;34335;51.566;6.994;2023-01-31T13:38:14;101365.38;;;4.78;100.00
48553;BME280;34335;51.566;6.994;2023-01-31T13:40:50;101358.63;;;4.81;100.00
48553;BME280;34335;51.566;6.994;2023-01-31T13:43:17;101353.31;;;4.77;100.00
48553;BME280;34335;51.566;6.994;2023-01-31T13:45:49;101359.31;;;4.76;100.00
48553;BME280;34335;51.566;6.994;2023-01-31T13:48:33;101355.06;;;4.78;100.00
48553;BME280;34335;51.566;6.994;2023-01-31T13:51:06;101357.72;;;4.79;100.00
48553;BME280;34335;51.566;6.994;2023-01-31T13:54:13;101345.59;;;4.77;100.00
48553;BME280;34335;51.566;6.994;2023-01-31T13:56:33;101350.00;;;4.79;100.00
48553;BME280;34335;51.566;6.994;2023-01-31T13:58:59;101358.47;;;4.77;100.00
48553;BME280;34335;51.566;6.994;2023-01-31T14:01:27;101348.09;;;4.74;100.00
48553;BME280;34335;51.566;6.994;2023-01-31T14:06:56;101355.06;;;4.78;100.00
48553;BME280;34335;51.566;6.994;2023-01-31T14:11:49;101341.28;;;4.76;100.00
48553;BME280;34335;51.566;6.994;2023-01-31T14:14:27;101349.91;;;4.78;100.00
48553;BME280;34335;51.566;6.994;2023-01-31T14:16:54;101348.31;;;4.81;100.00
48553;BME280;34335;51.566;6.994;2023-01-31T14:21:52;101339.75;;;4.82;100.00
48553;BME280;34335;51.566;6.994;2023-01-31T14:24:22;101345.00;;;4.84;100.00